createdAt,value
2022-11-19T00:01:31.663Z,6.06
2022-11-19T00:03:58.274Z,5.83
2022-11-19T00:06:26.132Z,5.89
2022-11-19T00:08:52.851Z,6.01
2022-11-19T00:11:41.059Z,6.00
2022-11-19T00:14:08.162Z,5.97
2022-11-19T00:16:35.462Z,5.88
2022-11-19T00:19:02.023Z,5.92
2022-11-19T00:21:28.518Z,5.88
2022-11-19T00:23:55.083Z,5.81
2022-11-19T00:26:21.840Z,5.57
2022-11-19T00:28:48.716Z,5.49
2022-11-19T00:31:15.700Z,5.35
2022-11-19T00:33:42.948Z,5.10
2022-11-19T00:36:10.910Z,5.05
2022-11-19T00:38:37.591Z,5.01
2022-11-19T00:41:04.118Z,5.02
2022-11-19T00:43:48.483Z,4.93
2022-11-19T00:46:15.269Z,4.71
2022-11-19T00:48:41.830Z,4.63
2022-11-19T00:51:08.560Z,4.54
2022-11-19T00:53:37.763Z,4.47
2022-11-19T00:56:05.423Z,4.37
2022-11-19T00:58:32.026Z,4.25
2022-11-19T01:01:00.840Z,4.21
2022-11-19T01:03:29.935Z,4.16
2022-11-19T01:05:56.445Z,4.03
2022-11-19T01:08:22.986Z,3.86
2022-11-19T01:10:49.627Z,3.81
2022-11-19T01:13:34.864Z,3.74
2022-11-19T01:16:05.698Z,3.65
2022-11-19T01:18:32.346Z,3.56
2022-11-19T01:20:59.424Z,3.52
2022-11-19T01:23:26.023Z,3.51
2022-11-19T01:25:52.611Z,3.45
2022-11-19T01:28:19.293Z,3.49
2022-11-19T01:30:50.894Z,3.54
2022-11-19T01:33:19.938Z,3.72
2022-11-19T01:36:00.064Z,3.78
2022-11-19T01:38:27.023Z,3.76
2022-11-19T01:40:56.308Z,3.76
2022-11-19T01:43:39.392Z,3.83
2022-11-19T01:46:06.168Z,3.97
2022-11-19T01:48:35.568Z,4.07
2022-11-19T01:51:15.507Z,4.20
2022-11-19T01:53:42.781Z,4.32
2022-11-19T01:56:11.771Z,4.28
2022-11-19T01:58:39.375Z,4.25
2022-11-19T02:01:06.507Z,4.23
2022-11-19T02:03:33.120Z,4.35
2022-11-19T02:06:00.507Z,4.35
2022-11-19T02:08:37.963Z,4.41
2022-11-19T02:11:27.113Z,4.52
2022-11-19T02:14:02.793Z,4.54
2022-11-19T02:16:29.331Z,4.55
2022-11-19T02:19:01.572Z,4.53
2022-11-19T02:21:31.192Z,4.56
2022-11-19T02:24:19.181Z,4.62
2022-11-19T02:26:48.953Z,4.62
2022-11-19T02:29:38.934Z,4.62
2022-11-19T02:32:08.508Z,4.66
2022-11-19T02:34:38.619Z,4.62
2022-11-19T02:37:06.137Z,4.55
2022-11-19T02:39:32.863Z,4.52
2022-11-19T02:42:07.798Z,4.41
2022-11-19T02:44:53.118Z,4.42
2022-11-19T02:47:20.766Z,4.51
2022-11-19T02:49:53.390Z,4.64
2022-11-19T02:52:20.357Z,4.67
2022-11-19T02:54:49.062Z,4.77
2022-11-19T02:57:20.225Z,4.66
2022-11-19T03:00:19.836Z,4.67
2022-11-19T03:03:06.109Z,4.75
2022-11-19T03:05:35.625Z,4.80
2022-11-19T03:08:02.252Z,5.00
2022-11-19T03:10:31.405Z,5.17
2022-11-19T03:13:28.978Z,5.35
2022-11-19T03:16:14.588Z,5.36
2022-11-19T03:18:51.066Z,5.32
2022-11-19T03:21:36.742Z,5.29
2022-11-19T03:24:23.949Z,5.35
2022-11-19T03:27:25.169Z,5.17
2022-11-19T03:29:52.170Z,5.03
2022-11-19T03:32:22.114Z,5.02
2022-11-19T03:34:49.085Z,5.07
2022-11-19T03:37:15.867Z,5.08
2022-11-19T03:39:42.458Z,4.70
2022-11-19T03:42:12.498Z,4.44
2022-11-19T03:44:39.022Z,4.17
2022-11-19T03:47:07.646Z,4.12
2022-11-19T03:49:35.046Z,4.07
2022-11-19T03:52:01.710Z,3.80
2022-11-19T03:54:28.293Z,3.47
2022-11-19T03:56:54.866Z,3.35
2022-11-19T03:59:28.289Z,3.22
2022-11-19T04:01:56.871Z,3.11
2022-11-19T04:04:38.837Z,3.04
2022-11-19T04:07:12.918Z,3.12
2022-11-19T04:09:41.997Z,3.13
2022-11-19T04:12:09.953Z,3.10
2022-11-19T04:14:39.352Z,2.96
2022-11-19T04:17:06.059Z,2.85
2022-11-19T04:19:32.879Z,2.69
2022-11-19T04:21:59.583Z,2.51
2022-11-19T04:24:28.583Z,2.51
2022-11-19T04:26:55.077Z,2.49
2022-11-19T04:29:22.322Z,2.61
2022-11-19T04:31:49.116Z,2.65
2022-11-19T04:34:17.978Z,2.75
2022-11-19T04:36:44.499Z,2.74
2022-11-19T04:39:12.560Z,2.76
2022-11-19T04:41:39.741Z,2.74
2022-11-19T04:44:06.428Z,2.71
2022-11-19T04:46:36.403Z,2.74
2022-11-19T04:49:03.698Z,2.73
2022-11-19T04:51:32.755Z,2.84
2022-11-19T04:54:01.712Z,2.95
2022-11-19T04:56:28.331Z,3.05
2022-11-19T04:58:57.258Z,3.27
2022-11-19T05:01:27.227Z,3.40
2022-11-19T05:03:54.034Z,3.59
2022-11-19T05:06:20.576Z,3.72
2022-11-19T05:08:52.214Z,3.87
2022-11-19T05:11:21.210Z,3.97
2022-11-19T05:13:49.859Z,4.12
2022-11-19T05:16:30.350Z,4.25
2022-11-19T05:19:01.910Z,4.42
2022-11-19T05:21:31.638Z,4.53
2022-11-19T05:24:00.542Z,4.65
2022-11-19T05:26:27.261Z,4.76
2022-11-19T05:28:53.865Z,4.55
2022-11-19T05:31:20.501Z,4.58
2022-11-19T05:33:49.335Z,4.74
2022-11-19T05:36:20.840Z,4.84
2022-11-19T05:38:59.073Z,4.86
2022-11-19T05:41:52.006Z,4.78
2022-11-19T05:44:20.885Z,4.76
2022-11-19T05:46:48.090Z,4.72
2022-11-19T05:49:15.740Z,4.40
2022-11-19T05:51:42.278Z,4.31
2022-11-19T05:54:08.913Z,4.10
2022-11-19T05:56:35.549Z,4.15
2022-11-19T05:59:04.586Z,4.12
2022-11-19T06:01:33.493Z,4.23
2022-11-19T06:04:02.905Z,2.41
2022-11-19T06:06:35.037Z,4.32
2022-11-19T06:09:03.988Z,4.44
2022-11-19T06:11:49.791Z,4.61
2022-11-19T06:14:28.466Z,4.72
2022-11-19T06:16:56.569Z,4.81
2022-11-19T06:19:23.335Z,4.71
2022-11-19T06:21:53.213Z,4.73
2022-11-19T06:24:19.933Z,4.66
2022-11-19T06:26:48.915Z,4.69
2022-11-19T06:29:15.973Z,4.79
2022-11-19T06:31:44.565Z,4.76
2022-11-19T06:34:13.670Z,4.68
2022-11-19T06:36:44.957Z,4.70
2022-11-19T06:39:12.876Z,4.88
2022-11-19T06:41:39.406Z,5.01
2022-11-19T06:44:06.241Z,4.99
2022-11-19T06:46:32.847Z,5.06
2022-11-19T06:49:04.106Z,5.12
2022-11-19T06:51:30.745Z,5.23
2022-11-19T06:53:59.590Z,5.34
2022-11-19T06:56:28.532Z,5.49
2022-11-19T06:58:58.464Z,5.65
2022-11-19T07:01:25.082Z,5.64
2022-11-19T07:03:51.666Z,5.63
2022-11-19T07:06:18.286Z,5.59
2022-11-19T07:08:44.892Z,5.51
2022-11-19T07:11:26.077Z,5.54
2022-11-19T07:13:58.973Z,5.50
2022-11-19T07:16:28.950Z,5.36
2022-11-19T07:18:56.898Z,5.43
2022-11-19T07:21:23.454Z,5.54
2022-11-19T07:23:49.968Z,5.61
2022-11-19T07:26:19.137Z,5.68
2022-11-19T07:28:45.672Z,5.73
2022-11-19T07:31:12.322Z,5.86
2022-11-19T07:33:41.421Z,6.06
2022-11-19T07:36:16.819Z,6.18
2022-11-19T07:38:44.609Z,6.28
2022-11-19T07:41:30.098Z,6.42
2022-11-19T07:43:56.757Z,6.57
2022-11-19T07:46:23.401Z,6.75
2022-11-19T07:48:56.381Z,6.84
2022-11-19T07:51:25.813Z,7.06
2022-11-19T07:53:52.496Z,7.14
2022-11-19T07:56:19.186Z,7.20
2022-11-19T07:58:48.385Z,7.30
2022-11-19T08:01:24.181Z,7.39
2022-11-19T08:03:55.925Z,7.42
2022-11-19T08:06:27.631Z,7.49
2022-11-19T08:08:56.508Z,7.49
2022-11-19T08:11:23.058Z,7.54
2022-11-19T08:13:49.989Z,7.55
2022-11-19T08:16:36.669Z,7.54
2022-11-19T08:19:23.206Z,7.43
2022-11-19T08:21:50.223Z,7.33
2022-11-19T08:24:18.423Z,7.19
2022-11-19T08:26:45.298Z,7.02
2022-11-19T08:29:16.658Z,7.05
2022-11-19T08:31:48.571Z,7.16
2022-11-19T08:34:15.566Z,7.22
2022-11-19T08:36:44.748Z,7.21
2022-11-19T08:39:11.628Z,7.29
2022-11-19T08:41:56.937Z,7.40
2022-11-19T08:44:23.726Z,7.54
2022-11-19T08:46:52.657Z,7.38
2022-11-19T08:49:19.316Z,7.42
2022-11-19T08:51:48.183Z,7.48
2022-11-19T08:54:14.774Z,7.56
2022-11-19T08:56:41.445Z,7.66
2022-11-19T08:59:08.012Z,7.63
2022-11-19T09:01:34.679Z,7.59
2022-11-19T09:04:03.768Z,7.61
2022-11-19T09:06:30.318Z,7.45
2022-11-19T09:08:59.405Z,7.43
2022-11-19T09:11:25.998Z,7.31
2022-11-19T09:13:52.806Z,7.25
2022-11-19T09:16:19.388Z,7.36
2022-11-19T09:18:46.020Z,7.63
2022-11-19T09:21:12.726Z,7.92
2022-11-19T09:23:42.578Z,8.22
2022-11-19T09:26:10.872Z,8.82
2022-11-19T09:28:37.464Z,9.39
2022-11-19T09:31:08.207Z,9.86
2022-11-19T09:33:35.563Z,9.78
2022-11-19T09:36:02.211Z,9.87
2022-11-19T09:38:31.889Z,10.05
2022-11-19T09:40:58.474Z,10.10
2022-11-19T09:43:43.513Z,10.17
2022-11-19T09:46:20.559Z,10.21
2022-11-19T09:48:47.186Z,10.37
2022-11-19T09:51:26.367Z,10.52
2022-11-19T09:53:52.874Z,10.70
2022-11-19T09:56:38.411Z,10.56
2022-11-19T09:59:08.272Z,10.38
2022-11-19T10:01:37.412Z,10.49
2022-11-19T10:04:06.416Z,10.55
2022-11-19T10:06:58.085Z,10.47
2022-11-19T10:09:24.689Z,10.16
2022-11-19T10:11:54.063Z,10.12
2022-11-19T10:14:25.999Z,10.36
2022-11-19T10:16:57.181Z,10.45
2022-11-19T10:19:39.322Z,10.34
2022-11-19T10:22:15.116Z,10.14
2022-11-19T10:24:45.339Z,9.81
2022-11-19T10:27:29.892Z,9.78
2022-11-19T10:30:05.806Z,10.30
2022-11-19T10:32:43.282Z,10.47
2022-11-19T10:35:19.403Z,10.58
2022-11-19T10:37:54.221Z,10.68
2022-11-19T10:40:26.623Z,10.75
2022-11-19T10:42:58.145Z,11.09
2022-11-19T10:45:28.862Z,11.06
2022-11-19T10:48:12.027Z,11.09
2022-11-19T10:50:38.651Z,11.05
2022-11-19T10:53:24.050Z,10.93
2022-11-19T10:55:54.780Z,11.01
2022-11-19T10:58:23.186Z,10.86
2022-11-19T11:00:49.734Z,11.19
2022-11-19T11:03:22.322Z,11.59
2022-11-19T11:06:02.126Z,11.65
2022-11-19T11:08:29.165Z,11.66
2022-11-19T11:10:55.800Z,11.18
2022-11-19T11:13:48.334Z,10.77
2022-11-19T11:16:18.672Z,10.70
2022-11-19T11:18:47.799Z,10.73
2022-11-19T11:21:34.771Z,10.84
2022-11-19T11:24:04.991Z,10.31
2022-11-19T11:26:33.778Z,10.34
2022-11-19T11:29:04.504Z,10.29
2022-11-19T11:31:35.546Z,10.25
2022-11-19T11:34:05.265Z,9.90
2022-11-19T11:36:32.920Z,10.06
2022-11-19T11:39:02.471Z,10.31
2022-11-19T11:44:23.342Z,10.90
2022-11-19T11:46:54.057Z,11.08
2022-11-19T11:49:20.915Z,11.18
2022-11-19T11:51:50.186Z,11.27
2022-11-19T11:54:18.542Z,11.41
2022-11-19T11:56:45.415Z,11.48
2022-11-19T11:59:21.520Z,11.37
2022-11-19T12:02:10.328Z,11.43
2022-11-19T12:04:39.409Z,11.29
2022-11-19T12:07:10.188Z,11.29
2022-11-19T12:10:03.740Z,11.46
2022-11-19T12:12:39.536Z,11.64
2022-11-19T12:15:09.142Z,11.56
2022-11-19T12:17:48.411Z,11.08
2022-11-19T12:20:31.207Z,10.60
2022-11-19T12:23:01.900Z,10.17
2022-11-19T12:25:54.918Z,9.82
2022-11-19T12:28:34.308Z,9.73
2022-11-19T12:31:03.914Z,9.98
2022-11-19T12:33:41.696Z,10.07
2022-11-19T12:36:28.636Z,10.24
2022-11-19T12:38:58.887Z,10.39
2022-11-19T12:41:39.180Z,10.55
2022-11-19T12:44:12.737Z,10.94
2022-11-19T12:46:58.124Z,10.88
2022-11-19T12:49:51.166Z,11.02
2022-11-19T12:52:25.347Z,11.29
2022-11-19T12:54:52.457Z,11.65
2022-11-19T12:57:30.889Z,11.83
2022-11-19T13:00:11.160Z,11.82
2022-11-19T13:02:40.802Z,11.81
2022-11-19T13:05:16.302Z,12.22
2022-11-19T13:07:51.961Z,12.77
2022-11-19T13:10:19.337Z,12.66
2022-11-19T13:12:49.993Z,12.88
2022-11-19T13:15:21.014Z,12.90
2022-11-19T13:17:52.082Z,12.79
2022-11-19T13:20:23.532Z,12.52
2022-11-19T13:22:50.155Z,12.24
2022-11-19T13:25:19.213Z,12.15
2022-11-19T13:27:48.915Z,11.75
2022-11-19T13:30:22.516Z,11.61
2022-11-19T13:32:52.110Z,11.58
2022-11-19T13:35:20.153Z,11.59
2022-11-19T13:38:12.509Z,11.57
2022-11-19T13:40:48.110Z,11.49
2022-11-19T13:43:33.893Z,11.36
2022-11-19T13:46:06.673Z,11.31
2022-11-19T13:48:43.879Z,11.14
2022-11-19T13:51:39.800Z,11.16
2022-11-19T13:54:07.486Z,11.02
2022-11-19T13:56:49.262Z,11.06
2022-11-19T13:59:24.855Z,11.01
2022-11-19T14:02:17.307Z,10.94
2022-11-19T14:05:02.830Z,10.85
2022-11-19T14:07:33.854Z,10.85
2022-11-19T14:10:18.077Z,10.83
2022-11-19T14:12:47.256Z,10.71
2022-11-19T14:15:44.539Z,10.60
2022-11-19T14:18:32.999Z,10.46
2022-11-19T14:21:37.798Z,10.36
2022-11-19T14:24:44.998Z,10.17
2022-11-19T14:27:32.251Z,10.03
2022-11-19T14:30:11.601Z,9.92
2022-11-19T14:32:46.604Z,9.75
2022-11-19T14:35:13.847Z,9.68
2022-11-19T14:37:42.116Z,9.52
2022-11-19T14:40:16.058Z,9.38
2022-11-19T14:43:19.036Z,9.34
2022-11-19T14:46:00.774Z,9.30
2022-11-19T14:48:30.657Z,9.19
2022-11-19T14:51:04.099Z,9.05
2022-11-19T14:53:33.032Z,9.00
2022-11-19T14:56:02.126Z,8.96
2022-11-19T14:58:28.621Z,8.89
2022-11-19T15:01:08.164Z,8.83
2022-11-19T15:03:34.896Z,8.79
2022-11-19T15:06:02.595Z,8.72
2022-11-19T15:08:30.418Z,8.69
2022-11-19T15:11:07.492Z,8.65
2022-11-19T15:13:39.172Z,8.61
2022-11-19T15:16:16.284Z,8.58
2022-11-19T15:18:42.755Z,8.47
2022-11-19T15:21:21.424Z,8.39
2022-11-19T15:24:00.524Z,8.36
2022-11-19T15:26:27.042Z,8.24
2022-11-19T15:28:56.619Z,8.14
2022-11-19T15:31:36.091Z,8.05
2022-11-19T15:34:02.798Z,7.96
2022-11-19T15:36:33.622Z,7.90
2022-11-19T15:39:04.632Z,7.86
2022-11-19T15:41:35.871Z,7.84
2022-11-19T15:44:03.354Z,7.78
2022-11-19T15:46:39.567Z,7.70
2022-11-19T15:49:25.544Z,7.57
2022-11-19T15:51:55.115Z,7.50
2022-11-19T15:54:28.185Z,7.44
2022-11-19T15:56:54.751Z,7.41
2022-11-19T15:59:21.545Z,7.37
2022-11-19T16:02:03.660Z,7.28
2022-11-19T16:04:31.821Z,7.22
2022-11-19T16:07:00.835Z,7.15
2022-11-19T16:09:27.552Z,7.11
2022-11-19T16:12:13.188Z,7.08
2022-11-19T16:14:58.456Z,7.03
2022-11-19T16:17:41.719Z,6.98
2022-11-19T16:20:24.499Z,7.00
2022-11-19T16:22:53.135Z,7.01
2022-11-19T16:25:34.798Z,7.03
2022-11-19T16:28:03.522Z,7.06
2022-11-19T16:30:30.317Z,7.09
2022-11-19T16:33:00.077Z,7.09
2022-11-19T16:35:30.321Z,7.10
2022-11-19T16:37:59.288Z,7.11
2022-11-19T16:40:25.833Z,7.10
2022-11-19T16:42:56.520Z,7.09
2022-11-19T16:45:27.134Z,7.11
2022-11-19T16:47:57.779Z,7.08
2022-11-19T16:50:45.313Z,7.06
2022-11-19T16:53:13.172Z,7.07
2022-11-19T16:55:43.075Z,7.07
2022-11-19T16:58:09.782Z,7.05
2022-11-19T17:00:42.907Z,6.98
2022-11-19T17:03:27.691Z,6.93
2022-11-19T17:05:59.797Z,6.82
2022-11-19T17:08:26.346Z,6.77
2022-11-19T17:11:32.032Z,6.75
2022-11-19T17:14:33.304Z,6.68
2022-11-19T17:16:59.864Z,6.62
2022-11-19T17:19:32.492Z,6.57
2022-11-19T17:22:17.663Z,6.57
2022-11-19T17:24:46.705Z,6.55
2022-11-19T17:27:34.555Z,6.48
2022-11-19T17:30:18.134Z,6.44
2022-11-19T17:32:56.905Z,6.49
2022-11-19T17:35:42.879Z,6.48
2022-11-19T17:38:15.921Z,6.41
2022-11-19T17:40:52.770Z,6.38
2022-11-19T17:44:04.425Z,6.38
2022-11-19T17:46:31.063Z,6.38
2022-11-19T17:48:57.737Z,6.40
2022-11-19T17:51:25.038Z,6.43
2022-11-19T17:53:51.964Z,6.41
2022-11-19T17:56:26.007Z,6.39
2022-11-19T17:58:52.738Z,6.40
2022-11-19T18:01:19.818Z,6.41
2022-11-19T18:03:49.054Z,6.45
2022-11-19T18:06:16.552Z,6.49
2022-11-19T18:08:43.380Z,6.50
2022-11-19T18:11:14.365Z,6.45
2022-11-19T18:13:40.943Z,6.36
2022-11-19T18:16:27.373Z,6.31
2022-11-19T18:18:54.041Z,6.32
2022-11-19T18:21:23.359Z,6.33
2022-11-19T18:23:50.815Z,6.24
2022-11-19T18:26:18.996Z,6.23
2022-11-19T18:28:49.467Z,6.21
2022-11-19T18:31:26.033Z,6.16
2022-11-19T18:33:55.486Z,6.12
2022-11-19T18:36:22.553Z,6.11
2022-11-19T18:38:49.236Z,6.10
2022-11-19T18:41:21.165Z,6.09
2022-11-19T18:44:08.827Z,6.08
2022-11-19T18:46:35.745Z,6.04
2022-11-19T18:49:02.646Z,6.07
2022-11-19T18:51:29.624Z,6.16
2022-11-19T18:53:56.239Z,6.24
2022-11-19T18:56:25.295Z,6.29
2022-11-19T18:58:54.264Z,6.33
2022-11-19T19:01:21.594Z,6.30
2022-11-19T19:03:48.226Z,6.27
2022-11-19T19:06:15.866Z,6.32
2022-11-19T19:08:46.564Z,6.33
2022-11-19T19:11:32.029Z,6.38
2022-11-19T19:14:01.021Z,6.40
2022-11-19T19:16:27.638Z,6.34
2022-11-19T19:18:59.027Z,6.27
2022-11-19T19:21:29.886Z,6.26
2022-11-19T19:24:01.255Z,6.28
2022-11-19T19:26:28.291Z,6.30
2022-11-19T19:28:56.342Z,6.31
2022-11-19T19:31:23.128Z,6.31
2022-11-19T19:33:49.974Z,6.42
2022-11-19T19:36:17.022Z,6.39
2022-11-19T19:38:45.838Z,6.44
2022-11-19T19:41:17.148Z,6.43
2022-11-19T19:43:47.640Z,6.44
2022-11-19T19:46:15.920Z,6.41
2022-11-19T19:48:45.626Z,6.40
2022-11-19T19:51:13.353Z,6.43
2022-11-19T19:53:41.784Z,6.49
2022-11-19T19:56:12.684Z,6.53
2022-11-19T19:58:43.647Z,6.55
2022-11-19T20:01:20.281Z,6.54
2022-11-19T20:03:53.064Z,6.47
2022-11-19T20:06:21.746Z,6.46
2022-11-19T20:08:48.296Z,6.43
2022-11-19T20:11:19.106Z,6.47
2022-11-19T20:13:45.760Z,6.46
2022-11-19T20:16:18.435Z,6.43
2022-11-19T20:18:46.088Z,6.39
2022-11-19T20:21:18.536Z,6.40
2022-11-19T20:23:45.113Z,6.42
2022-11-19T20:26:14.603Z,6.43
2022-11-19T20:28:46.643Z,6.38
2022-11-19T20:31:14.362Z,6.30
2022-11-19T20:33:44.000Z,6.25
2022-11-19T20:36:13.404Z,6.27
2022-11-19T20:38:48.598Z,6.26
2022-11-19T20:41:35.043Z,6.23
2022-11-19T20:44:20.698Z,6.18
2022-11-19T20:46:48.552Z,6.16
2022-11-19T20:49:18.129Z,6.18
2022-11-19T20:51:48.050Z,6.18
2022-11-19T20:54:14.603Z,6.20
2022-11-19T20:56:41.536Z,6.23
2022-11-19T20:59:08.404Z,6.21
2022-11-19T21:01:37.764Z,6.23
2022-11-19T21:04:04.657Z,6.24
2022-11-19T21:06:31.318Z,6.25
2022-11-19T21:08:57.997Z,6.26
2022-11-19T21:11:24.968Z,6.28
2022-11-19T21:13:51.831Z,6.30
2022-11-19T21:16:24.004Z,6.25
2022-11-19T21:18:50.781Z,6.25
2022-11-19T21:21:17.885Z,6.21
2022-11-19T21:23:44.574Z,6.22
2022-11-19T21:26:16.775Z,6.26
2022-11-19T21:28:46.271Z,6.31
2022-11-19T21:31:13.103Z,6.33
2022-11-19T21:33:40.552Z,6.31
2022-11-19T21:36:09.758Z,6.28
2022-11-19T21:38:41.672Z,6.26
2022-11-19T21:41:08.222Z,6.26
2022-11-19T21:43:39.785Z,6.28
2022-11-19T21:46:06.917Z,6.28
2022-11-19T21:48:36.753Z,6.25
2022-11-19T21:51:09.220Z,6.21
2022-11-19T21:53:38.356Z,6.26
2022-11-19T21:56:07.651Z,6.31
2022-11-19T21:58:34.226Z,6.32
2022-11-19T22:01:01.439Z,6.32
2022-11-19T22:03:28.914Z,6.28
2022-11-19T22:06:07.894Z,6.30
2022-11-19T22:08:35.484Z,6.26
2022-11-19T22:11:21.971Z,6.21
2022-11-19T22:13:48.610Z,6.17
2022-11-19T22:16:15.177Z,6.17
2022-11-19T22:18:41.728Z,6.16
2022-11-19T22:21:08.266Z,6.08
2022-11-19T22:23:39.396Z,6.07
2022-11-19T22:26:08.771Z,6.03
2022-11-19T22:28:35.492Z,5.89
2022-11-19T22:31:02.142Z,5.87
2022-11-19T22:33:29.422Z,5.81
2022-11-19T22:35:59.478Z,5.77
2022-11-19T22:38:28.763Z,5.80
2022-11-19T22:41:00.589Z,5.79
2022-11-19T22:43:30.340Z,5.81
2022-11-19T22:46:04.042Z,5.75
2022-11-19T22:48:33.486Z,5.73
2022-11-19T22:51:00.148Z,5.66
2022-11-19T22:53:26.794Z,5.68
2022-11-19T22:55:53.466Z,5.68
2022-11-19T22:58:22.628Z,5.60
2022-11-19T23:00:50.425Z,5.49
2022-11-19T23:03:17.316Z,5.44
2022-11-19T23:05:55.204Z,5.48
2022-11-19T23:08:21.896Z,5.40
2022-11-19T23:10:56.199Z,5.37
2022-11-19T23:13:34.430Z,5.31
2022-11-19T23:16:05.207Z,5.25
2022-11-19T23:18:32.895Z,5.27
2022-11-19T23:21:00.615Z,5.25
2022-11-19T23:23:29.735Z,5.08
2022-11-19T23:25:59.273Z,5.13
2022-11-19T23:28:26.376Z,5.09
2022-11-19T23:30:53.040Z,5.14
2022-11-19T23:33:19.777Z,5.09
2022-11-19T23:35:46.333Z,5.01
2022-11-19T23:38:12.960Z,5.00
2022-11-19T23:40:42.024Z,5.05
2022-11-19T23:43:08.576Z,5.08
2022-11-19T23:45:36.021Z,5.10
2022-11-19T23:48:04.894Z,5.04
2022-11-19T23:50:33.814Z,5.11
2022-11-19T23:53:00.509Z,4.99
2022-11-19T23:55:27.119Z,5.00
2022-11-19T23:57:56.171Z,5.04
